Time;durP1;ratioP1;P1;durP2;ratioP2;P2;SDS_P1;SDS_P2;PMS_P1;PMS_P2;Temp;Humidity;BMP_temperature;BMP_pressure;BME280_temperature;BME280_humidity;BME280_pressure;Samples;Min_cycle;Max_cycle;Signal;HPM_P1;HPM_P2
2023/06/17 00:00:09;;;;;;;8.35;7.47;;;;;;;12.94;97.71;100772.84;7398026;19;20014;-69
2023/06/17 00:02:38;;;;;;;7.15;6.43;;;;;;;12.90;98.02;100779.97;7397387;19;20490;-69
2023/06/17 00:05:07;;;;;;;7.45;6.65;;;;;;;12.87;97.76;100775.69;7398013;19;20427;-69
2023/06/17 00:07:36;;;;;;;7.18;6.47;;;;;;;12.85;97.87;100774.00;7397586;19;20019;-69
2023/06/17 00:10:04;;;;;;;10.60;6.82;;;;;;;12.85;97.82;100760.84;7398315;19;20035;-73
2023/06/17 00:12:36;;;;;;;7.57;6.43;;;;;;;12.82;97.97;100759.16;7399758;19;20018;-73
2023/06/17 00:15:06;;;;;;;8.52;6.90;;;;;;;12.82;97.68;100755.69;7397777;19;20022;-70
2023/06/17 00:17:35;;;;;;;7.22;6.53;;;;;;;12.80;97.71;100755.72;7397696;19;20077;-70
2023/06/17 00:20:08;;;;;;;8.45;6.72;;;;;;;12.80;97.76;100757.47;7397330;19;20019;-68
2023/06/17 00:22:39;;;;;;;8.23;7.43;;;;;;;12.79;97.80;100759.28;7395992;19;20018;-68
2023/06/17 00:25:08;;;;;;;7.88;7.07;;;;;;;12.79;97.74;100761.91;7397838;19;20010;-68
2023/06/17 00:27:39;;;;;;;8.15;7.00;;;;;;;12.80;97.79;100760.13;7397284;19;20018;-68
2023/06/17 00:30:09;;;;;;;7.65;6.88;;;;;;;12.79;97.69;100750.50;7396566;19;20026;-69
2023/06/17 00:32:39;;;;;;;8.73;7.88;;;;;;;12.79;97.80;100754.00;7396486;19;20505;-69
2023/06/17 00:35:08;;;;;;;10.45;7.60;;;;;;;12.78;97.66;100754.91;7397142;19;20038;-69
2023/06/17 00:37:37;;;;;;;9.10;7.70;;;;;;;12.78;97.61;100754.91;7396557;19;20014;-68
2023/06/17 00:40:09;;;;;;;8.98;8.00;;;;;;;12.78;97.61;100754.91;7396616;19;20497;-68
2023/06/17 00:42:40;;;;;;;9.48;8.38;;;;;;;12.75;97.76;100755.03;7396972;19;20018;-68
2023/06/17 00:45:10;;;;;;;10.98;8.15;;;;;;;12.74;97.86;100748.03;7397095;19;20035;-68
2023/06/17 00:47:39;;;;;;;11.05;8.68;;;;;;;12.73;97.68;100746.28;7396683;19;20018;-69
2023/06/17 00:50:16;;;;;;;9.63;8.73;;;;;;;12.73;97.64;100748.06;7394448;19;20015;-68
2023/06/17 00:52:46;;;;;;;11.27;8.57;;;;;;;12.70;97.59;100741.09;7396137;19;20030;-68
2023/06/17 00:55:15;;;;;;;9.77;8.25;;;;;;;12.70;97.75;100747.25;7394984;19;20035;-69
2023/06/17 00:57:47;;;;;;;12.15;8.95;;;;;;;12.68;97.67;100749.06;7396254;19;20018;-68
2023/06/17 01:00:17;;;;;;;10.02;8.38;;;;;;;12.67;97.79;100754.38;7394332;19;20549;-68
2023/06/17 01:02:46;;;;;;;10.45;8.38;;;;;;;12.65;97.84;100749.16;7394127;19;20014;-68
2023/06/17 01:05:16;;;;;;;9.95;8.63;;;;;;;12.63;97.82;100750.97;7394187;19;20011;-69
2023/06/17 01:07:56;;;;;;;9.20;8.30;;;;;;;12.61;97.73;100747.53;7396477;19;20031;-69
2023/06/17 01:10:31;;;;;;;9.52;8.55;;;;;;;12.60;97.75;100747.56;7393952;19;20014;-69
2023/06/17 01:13:05;;;;;;;10.45;9.07;;;;;;;12.58;97.99;100744.13;7395971;19;20032;-66
2023/06/17 01:15:35;;;;;;;;;;;;;;;12.57;97.89;100750.31;7395849;19;20020;-67
2023/06/17 01:18:07;;;;;;;10.13;9.05;;;;;;;12.53;97.73;100747.75;7395674;19;19918;-67
2023/06/17 01:20:35;;;;;;;11.60;10.48;;;;;;;12.53;97.68;100739.84;7395873;19;20030;-67
2023/06/17 01:23:06;;;;;;;12.95;9.95;;;;;;;12.52;97.71;100743.41;7393424;19;20395;-67
2023/06/17 01:25:37;;;;;;;12.50;10.40;;;;;;;12.52;97.98;100743.41;7396032;19;20422;-67
2023/06/17 01:28:16;;;;;;;11.68;10.07;;;;;;;12.55;97.82;100742.47;7395910;19;20026;-67
2023/06/17 01:30:47;;;;;;;11.43;10.20;;;;;;;12.53;98.04;100737.22;7394059;19;20014;-67
2023/06/17 01:33:17;;;;;;;11.88;10.77;;;;;;;12.55;98.01;100743.31;7394476;19;20019;-66
2023/06/17 01:35:51;;;;;;;12.10;10.80;;;;;;;12.54;98.05;100738.94;7395784;19;20035;-67
2023/06/17 01:38:25;;;;;;;12.45;10.45;;;;;;;12.54;98.08;100741.56;7393886;19;20022;-68
2023/06/17 01:41:10;;;;;;;11.77;10.65;;;;;;;12.53;98.29;100739.84;7395632;19;20018;-67
2023/06/17 01:43:41;;;;;;;12.40;10.63;;;;;;;12.53;98.10;100739.84;7393782;19;20076;-67
2023/06/17 01:46:10;;;;;;;11.93;10.45;;;;;;;12.52;98.20;100740.78;7394816;19;20031;-67
2023/06/17 01:48:39;;;;;;;15.32;11.68;;;;;;;12.50;98.30;100732.06;7394898;19;20032;-67
2023/06/17 01:51:08;;;;;;;14.68;11.23;;;;;;;12.51;98.13;100736.41;7393136;19;20028;-66
2023/06/17 01:53:37;;;;;;;12.82;10.80;;;;;;;12.52;98.21;100732.88;7392911;19;20090;-66
2023/06/17 01:56:08;;;;;;;12.65;11.27;;;;;;;12.52;98.34;100738.16;7392676;19;20018;-67
2023/06/17 01:58:38;;;;;;;13.23;11.07;;;;;;;12.52;98.54;100740.78;7394847;19;20015;-66
2023/06/17 02:01:06;;;;;;;12.27;11.10;;;;;;;12.52;98.57;100732.00;7394650;19;20018;-67
2023/06/17 02:03:35;;;;;;;11.85;10.63;;;;;;;12.52;98.47;100735.53;7393115;19;20482;-66
2023/06/17 02:06:04;;;;;;;13.50;11.27;;;;;;;12.52;98.62;100740.78;7394444;19;20015;-67
2023/06/17 02:08:34;;;;;;;13.02;11.38;;;;;;;12.52;98.49;100738.16;7394497;19;20010;-67
2023/06/17 02:11:03;;;;;;;12.07;10.88;;;;;;;12.53;98.42;100736.38;7393247;19;20015;-67
2023/06/17 02:13:34;;;;;;;12.43;10.68;;;;;;;12.53;98.64;100731.94;7393214;19;20081;-67
2023/06/17 02:16:02;;;;;;;11.60;10.40;;;;;;;12.53;98.50;100734.59;7391924;19;20019;-67
2023/06/17 02:18:32;;;;;;;13.40;12.00;;;;;;;12.54;98.49;100724.94;7393721;19;20027;-67
2023/06/17 02:21:02;;;;;;;12.38;11.18;;;;;;;12.55;98.68;100730.16;7393763;19;20577;-67
2023/06/17 02:23:30;;;;;;;13.32;11.90;;;;;;;12.57;98.73;100738.00;7392571;19;20018;-68
2023/06/17 02:25:59;;;;;;;12.70;11.48;;;;;;;12.56;98.54;100728.38;7396016;19;20031;-67
2023/06/17 02:28:28;;;;;;;12.55;11.25;;;;;;;12.58;98.58;100730.97;7400969;19;20027;-67
2023/06/17 02:30:59;;;;;;;13.73;11.60;;;;;;;12.58;98.52;100730.97;7399364;19;20025;-67
2023/06/17 02:33:27;;;;;;;13.05;11.65;;;;;;;12.58;98.77;100737.09;7399432;19;20019;-67
2023/06/17 02:35:56;;;;;;;13.32;12.13;;;;;;;12.59;98.73;100727.44;7400725;19;20011;-67
2023/06/17 02:38:26;;;;;;;12.77;11.48;;;;;;;12.59;98.65;100723.03;7398504;19;20022;-67
2023/06/17 02:40:54;;;;;;;13.10;11.80;;;;;;;12.58;98.84;100721.28;7400505;19;20086;-67
2023/06/17 02:43:23;;;;;;;13.07;11.88;;;;;;;12.59;98.93;100723.03;7399283;19;20032;-67
2023/06/17 02:45:52;;;;;;;12.60;11.40;;;;;;;12.59;98.99;100724.81;7400877;19;20022;-67
2023/06/17 02:48:23;;;;;;;14.13;12.60;;;;;;;12.58;98.88;100723.94;7401101;19;20419;-67
2023/06/17 02:50:53;;;;;;;12.73;11.48;;;;;;;12.57;98.78;100723.97;7398704;19;20007;-67
2023/06/17 02:53:22;;;;;;;12.85;11.55;;;;;;;12.54;98.90;100730.19;7399652;19;20078;-68
2023/06/17 02:55:53;;;;;;;13.10;11.45;;;;;;;12.55;98.95;100730.16;7397549;19;20545;-67
2023/06/17 02:58:25;;;;;;;13.35;11.98;;;;;;;12.54;99.21;100725.78;7400771;19;20043;-68
2023/06/17 03:00:55;;;;;;;13.23;11.48;;;;;;;12.54;99.06;100730.19;7399928;19;20021;-68
2023/06/17 03:03:34;;;;;;;13.80;12.20;;;;;;;12.53;99.03;100720.56;7398541;19;20474;-68
2023/06/17 03:06:05;;;;;;;14.63;12.45;;;;;;;12.52;99.31;100721.47;7399726;19;20485;-68
2023/06/17 03:08:35;;;;;;;13.20;11.82;;;;;;;12.51;99.11;100727.66;7399663;19;20021;-68
2023/06/17 03:11:03;;;;;;;15.38;12.10;;;;;;;12.51;99.08;100735.53;7398834;19;20040;-68
2023/06/17 03:13:32;;;;;;;13.20;11.82;;;;;;;12.46;99.08;100722.53;7398555;19;20035;-67
2023/06/17 03:16:02;;;;;;;13.30;11.90;;;;;;;12.45;99.00;100720.81;7399836;19;20032;-67
2023/06/17 03:18:33;;;;;;;13.07;11.75;;;;;;;12.43;99.23;100712.09;7399262;19;20549;-68
2023/06/17 03:21:02;;;;;;;13.02;11.80;;;;;;;12.42;98.99;100720.03;7400168;19;20039;-67
2023/06/17 03:23:30;;;;;;;13.75;12.15;;;;;;;12.40;99.14;100717.47;7398306;19;20026;-67
2023/06/17 03:25:59;;;;;;;14.45;11.77;;;;;;;12.39;99.00;100723.63;7397160;19;20035;-66
2023/06/17 03:28:28;;;;;;;13.23;11.82;;;;;;;12.38;99.03;100716.63;7397048;19;20014;-66
2023/06/17 03:30:57;;;;;;;15.38;13.55;;;;;;;12.37;99.15;100722.78;7396553;19;20482;-66
2023/06/17 03:33:50;;;;;;;14.68;12.30;;;;;;;12.34;98.78;100725.53;7397672;19;20021;-66
2023/06/17 03:36:19;;;;;;;14.55;13.05;;;;;;;12.33;98.98;100727.31;7398149;19;20076;-66
2023/06/17 03:38:48;;;;;;;14.43;12.93;;;;;;;12.31;98.94;100729.13;7400383;19;20415;-66
2023/06/17 03:41:16;;;;;;;16.38;13.43;;;;;;;12.29;98.91;100727.44;7398896;19;20019;-66
2023/06/17 03:43:45;;;;;;;14.52;13.02;;;;;;;12.27;99.03;100724.84;7397423;19;20022;-66
2023/06/17 03:46:13;;;;;;;14.90;13.50;;;;;;;12.26;99.02;100730.13;7398777;19;20019;-66
2023/06/17 03:48:42;;;;;;;16.45;14.80;;;;;;;12.26;98.97;100724.88;7398265;19;20477;-66
2023/06/17 03:51:19;;;;;;;15.55;13.95;;;;;;;12.27;98.99;100732.75;7396492;19;20010;-66
2023/06/17 03:53:47;;;;;;;15.30;13.70;;;;;;;12.27;99.02;100731.88;7397452;19;20019;-66
2023/06/17 03:56:16;;;;;;;15.07;13.57;;;;;;;12.29;98.85;100732.69;7398127;19;20478;-68
2023/06/17 03:58:44;;;;;;;17.63;13.77;;;;;;;12.29;98.79;100722.19;7398332;19;20035;-66
2023/06/17 04:01:14;;;;;;;17.70;14.32;;;;;;;12.30;98.99;100732.66;7396271;19;20082;-67
2023/06/17 04:03:44;;;;;;;16.35;14.55;;;;;;;12.31;99.02;100733.50;7396031;19;20023;-66
2023/06/17 04:06:13;;;;;;;15.88;14.15;;;;;;;12.33;98.82;100736.94;7399020;19;20018;-66
2023/06/17 04:08:44;;;;;;;20.42;17.13;;;;;;;12.33;98.78;100743.09;7398037;19;20014;-66
2023/06/17 04:11:12;;;;;;;17.92;15.35;;;;;;;12.34;98.91;100731.63;7397645;19;20022;-66
2023/06/17 04:13:41;;;;;;;35.97;28.67;;;;;;;12.38;98.92;100742.94;7395702;19;20022;-66
2023/06/17 04:16:09;;;;;;;18.17;15.80;;;;;;;12.39;99.05;100737.63;7397390;19;20023;-66
2023/06/17 04:18:38;;;;;;;18.33;16.30;;;;;;;12.42;98.80;100743.72;7397603;19;20018;-66
2023/06/17 04:21:06;;;;;;;17.25;15.57;;;;;;;12.44;99.05;100742.75;7397581;19;20014;-66
2023/06/17 04:23:35;;;;;;;18.27;15.63;;;;;;;12.47;98.89;100734.78;7396536;19;20032;-65
2023/06/17 04:26:06;;;;;;;18.65;16.75;;;;;;;12.51;99.09;100739.06;7396980;19;20112;-65
2023/06/17 04:28:35;;;;;;;18.92;16.92;;;;;;;12.54;99.04;100746.84;7395968;19;20038;-65
2023/06/17 04:31:03;;;;;;;18.85;16.95;;;;;;;12.57;99.19;100737.16;7395504;19;20031;-65
2023/06/17 04:33:37;;;;;;;19.08;16.80;;;;;;;12.60;98.98;100748.44;7395803;19;20494;-65
2023/06/17 04:36:08;;;;;;;22.38;18.23;;;;;;;12.62;98.89;100743.97;7395676;19;20018;-66
2023/06/17 04:38:38;;;;;;;20.25;18.25;;;;;;;12.65;98.88;100740.38;7397186;19;20023;-66
2023/06/17 04:41:09;;;;;;;20.77;18.67;;;;;;;12.65;98.93;100743.03;7397935;19;20082;-66
2023/06/17 04:43:37;;;;;;;22.52;19.45;;;;;;;12.69;98.90;100742.03;7395961;19;20376;-66
2023/06/17 04:46:06;;;;;;;21.48;19.27;;;;;;;12.73;98.88;100746.28;7396394;19;20021;-66
2023/06/17 04:48:37;;;;;;;24.20;21.00;;;;;;;12.77;99.03;100745.28;7394382;19;20514;-66
2023/06/17 04:51:12;;;;;;;22.35;19.98;;;;;;;12.83;98.89;100753.00;7394295;19;20011;-66
2023/06/17 04:53:41;;;;;;;22.45;20.35;;;;;;;12.88;98.99;100745.81;7395688;19;20030;-66
2023/06/17 04:56:12;;;;;;;22.23;19.88;;;;;;;12.94;98.78;100741.25;7396357;19;20026;-66
2023/06/17 04:58:41;;;;;;;22.40;20.20;;;;;;;12.99;98.68;100740.22;7396936;19;20031;-66
2023/06/17 05:01:11;;;;;;;21.90;19.35;;;;;;;13.06;98.72;100745.28;7396323;19;20022;-66
2023/06/17 05:03:39;;;;;;;23.40;20.98;;;;;;;13.11;98.64;100756.53;7395085;19;20018;-65
2023/06/17 05:06:08;;;;;;;24.65;20.20;;;;;;;13.17;98.54;100746.66;7396100;19;20014;-66
2023/06/17 05:08:36;;;;;;;24.50;22.00;;;;;;;13.24;98.44;100749.09;7394588;19;20478;-67
2023/06/17 05:11:05;;;;;;;25.75;23.05;;;;;;;13.29;98.39;100745.38;7395205;19;20028;-66
2023/06/17 05:13:36;;;;;;;25.52;22.27;;;;;;;13.35;98.47;100750.44;7394366;19;20019;-66
2023/06/17 05:16:04;;;;;;;23.95;21.42;;;;;;;13.42;98.23;100745.00;7395511;19;20027;-65
2023/06/17 05:18:33;;;;;;;24.92;21.83;;;;;;;13.45;97.92;100743.13;7395352;19;20379;-66
2023/06/17 05:21:01;;;;;;;24.15;21.65;;;;;;;13.49;97.98;100739.47;7394077;19;20090;-66
2023/06/17 05:23:29;;;;;;;25.23;21.95;;;;;;;13.53;97.79;100742.88;7394690;19;20022;-65
2023/06/17 05:25:58;;;;;;;23.92;21.52;;;;;;;13.57;97.73;100748.91;7395066;19;20018;-67
2023/06/17 05:28:26;;;;;;;24.88;22.33;;;;;;;13.59;97.48;100747.09;7395513;19;20022;-67
2023/06/17 05:30:58;;;;;;;22.77;20.45;;;;;;;13.62;97.47;100746.97;7395427;19;20038;-67
2023/06/17 05:33:26;;;;;;;24.70;22.10;;;;;;;13.65;97.22;100749.53;7394151;19;20023;-67
2023/06/17 05:35:54;;;;;;;26.52;23.70;;;;;;;13.68;97.64;100757.31;7393550;19;20074;-67
2023/06/17 05:38:23;;;;;;;25.90;23.17;;;;;;;13.69;97.17;100753.75;7392922;19;20481;-67
2023/06/17 05:40:51;;;;;;;28.25;25.15;;;;;;;13.70;97.47;100755.50;7394992;19;20022;-67
2023/06/17 05:43:20;;;;;;;28.15;25.25;;;;;;;13.72;97.10;100758.91;7394243;19;20035;-66
2023/06/17 05:45:48;;;;;;;27.17;23.17;;;;;;;13.73;97.03;100768.56;7393165;19;20022;-66
2023/06/17 05:48:19;;;;;;;26.80;23.90;;;;;;;13.74;96.81;100766.78;7394157;19;20014;-66
2023/06/17 05:50:48;;;;;;;25.70;22.92;;;;;;;13.73;97.01;100765.91;7392842;19;20018;-66
2023/06/17 05:53:17;;;;;;;26.42;23.65;;;;;;;13.78;97.20;100776.31;7392682;19;20502;-66
2023/06/17 05:55:46;;;;;;;27.73;24.83;;;;;;;13.82;97.20;100776.13;7394924;19;20022;-66
2023/06/17 05:58:14;;;;;;;27.75;24.85;;;;;;;13.87;97.04;100777.78;7394881;19;20023;-67
2023/06/17 06:00:44;;;;;;;25.92;23.13;;;;;;;13.88;97.13;100767.16;7398890;19;20120;-66
2023/06/17 06:03:13;;;;;;;28.10;24.35;;;;;;;13.93;97.00;100777.56;7400985;19;20018;-66
2023/06/17 06:05:44;;;;;;;28.55;24.70;;;;;;;13.98;96.88;100772.97;7401564;19;20011;-67
2023/06/17 06:08:12;;;;;;;28.50;25.27;;;;;;;14.05;97.27;100774.47;7402519;19;20014;-66
2023/06/17 06:10:41;;;;;;;27.60;24.67;;;;;;;14.09;96.80;100778.75;7401613;19;20026;-66
2023/06/17 06:13:09;;;;;;;27.27;24.05;;;;;;;14.13;96.44;100780.34;7398472;19;20035;-66
2023/06/17 06:15:38;;;;;;;27.13;24.23;;;;;;;14.16;96.72;100780.22;7398683;19;20023;-66
2023/06/17 06:18:06;;;;;;;26.83;23.95;;;;;;;14.22;96.54;100778.31;7401620;19;20032;-65
2023/06/17 06:20:35;;;;;;;28.15;25.27;;;;;;;14.25;96.44;100784.31;7401361;19;20037;-66
2023/06/17 06:23:06;;;;;;;28.67;25.45;;;;;;;14.28;96.04;100784.22;7400143;19;20035;-66
2023/06/17 06:25:34;;;;;;;26.73;23.77;;;;;;;14.30;96.09;100787.63;7401042;19;20420;-67
2023/06/17 06:28:03;;;;;;;28.08;25.13;;;;;;;14.32;95.99;100785.81;7401239;19;20027;-66
2023/06/17 06:30:31;;;;;;;28.42;25.13;;;;;;;14.35;95.76;100784.84;7398149;19;20018;-66
2023/06/17 06:33:00;;;;;;;27.88;24.98;;;;;;;14.37;95.81;100792.69;7398843;19;20018;-66
2023/06/17 06:35:29;;;;;;;27.25;24.35;;;;;;;14.40;95.81;100787.31;7400671;19;20018;-66
2023/06/17 06:37:57;;;;;;;33.38;26.73;;;;;;;14.42;95.63;100794.25;7400833;19;20031;-68
2023/06/17 06:40:28;;;;;;;28.60;25.52;;;;;;;14.44;95.22;100788.91;7400220;19;20014;-66
2023/06/17 06:42:57;;;;;;;29.00;26.02;;;;;;;14.46;95.17;100795.00;7397563;19;20419;-66
2023/06/17 06:45:25;;;;;;;29.60;26.45;;;;;;;14.48;94.90;100794.03;7400569;19;20022;-66
2023/06/17 06:47:54;;;;;;;29.83;26.63;;;;;;;14.52;95.09;100792.13;7400242;19;20514;-66
2023/06/17 06:50:23;;;;;;;29.17;26.13;;;;;;;14.57;94.96;100791.94;7399006;19;20367;-66
2023/06/17 06:52:51;;;;;;;27.77;24.83;;;;;;;14.61;94.94;100794.44;7398442;19;20018;-66
2023/06/17 06:55:20;;;;;;;28.15;25.23;;;;;;;14.68;94.66;100802.16;7400368;19;20035;-67
2023/06/17 06:57:51;;;;;;;27.75;24.95;;;;;;;14.72;94.08;100798.47;7400156;19;20030;-68
2023/06/17 07:00:20;;;;;;;29.15;25.98;;;;;;;14.76;93.88;100805.34;7400422;19;20010;-65
2023/06/17 07:02:48;;;;;;;28.25;25.33;;;;;;;14.77;93.52;100805.31;7396941;19;20018;-65
2023/06/17 07:05:17;;;;;;;28.92;26.02;;;;;;;14.78;93.60;100809.66;7397349;19;20023;-65
2023/06/17 07:07:45;;;;;;;28.38;25.52;;;;;;;14.78;93.40;100804.38;7399721;19;20419;-66
2023/06/17 07:10:14;;;;;;;35.45;30.23;;;;;;;14.80;93.80;100812.25;7396736;19;20028;-66
2023/06/17 07:12:44;;;;;;;30.67;27.02;;;;;;;14.85;93.79;100806.78;7396378;19;20035;-66
2023/06/17 07:15:15;;;;;;;28.52;25.58;;;;;;;14.89;93.81;100805.75;7399267;19;20537;-66
2023/06/17 07:17:44;;;;;;;28.85;25.85;;;;;;;14.95;93.99;100794.91;7399908;19;20019;-67
2023/06/17 07:20:13;;;;;;;29.17;26.08;;;;;;;15.01;93.37;100802.59;7400044;19;20112;-67
2023/06/17 07:22:42;;;;;;;26.88;24.10;;;;;;;15.07;93.15;100799.72;7398643;19;20506;-67
2023/06/17 07:25:11;;;;;;;28.48;25.48;;;;;;;15.16;93.13;100809.06;7399443;19;20018;-67
2023/06/17 07:27:40;;;;;;;26.95;24.15;;;;;;;15.24;92.95;100814.94;7398841;19;20490;-68
2023/06/17 07:30:10;;;;;;;28.33;25.48;;;;;;;15.31;92.49;100815.53;7398869;19;20035;-67
2023/06/17 07:32:41;;;;;;;27.88;25.00;;;;;;;15.36;92.30;100813.56;7397769;19;20032;-67
2023/06/17 07:35:10;;;;;;;27.45;23.85;;;;;;;15.44;91.94;100822.06;7398684;19;20079;-67
2023/06/17 07:37:38;;;;;;;30.05;26.92;;;;;;;15.53;91.32;100806.72;7398483;19;20035;-67
2023/06/17 07:40:10;;;;;;;29.23;26.35;;;;;;;15.60;91.49;100803.75;7398202;19;20035;-67
2023/06/17 07:42:41;;;;;;;27.17;23.73;;;;;;;15.73;91.38;100804.13;7398187;19;20014;-67
2023/06/17 07:45:11;;;;;;;26.45;23.65;;;;;;;15.84;90.93;100810.75;7399104;19;20031;-67
2023/06/17 07:47:42;;;;;;;25.08;22.48;;;;;;;15.93;90.45;100800.63;7398072;19;20006;-67
2023/06/17 07:50:11;;;;;;;24.63;22.10;;;;;;;16.02;90.34;100799.38;7397210;19;20014;-67
2023/06/17 07:52:40;;;;;;;24.50;22.10;;;;;;;16.11;89.91;100801.63;7396251;19;20082;-68
2023/06/17 07:55:10;;;;;;;26.00;23.40;;;;;;;16.22;89.72;100803.78;7398407;19;20025;-70
2023/06/17 07:57:39;;;;;;;25.30;22.10;;;;;;;16.31;89.44;100805.16;7397956;19;20014;-67
2023/06/17 08:00:13;;;;;;;23.98;21.52;;;;;;;16.38;88.97;100803.97;7398158;19;20038;-67
2023/06/17 08:02:45;;;;;;;25.10;22.52;;;;;;;16.48;88.99;100806.19;7399309;19;20023;-67
2023/06/17 08:05:13;;;;;;;23.58;21.13;;;;;;;16.55;88.81;100803.19;7397459;19;20481;-67
2023/06/17 08:07:42;;;;;;;25.45;22.67;;;;;;;16.63;88.10;100804.63;7397775;19;20034;-68
2023/06/17 08:10:11;;;;;;;23.67;21.13;;;;;;;16.72;88.15;100805.06;7397851;19;20028;-67
2023/06/17 08:12:40;;;;;;;22.58;20.27;;;;;;;16.84;87.88;100797.47;7396352;19;20376;-67
2023/06/17 08:15:10;;;;;;;27.08;21.77;;;;;;;16.90;87.52;100791.91;7397739;19;20019;-67
2023/06/17 08:17:40;;;;;;;24.60;21.55;;;;;;;16.98;87.31;100797.69;7395736;19;20035;-69
2023/06/17 08:20:13;;;;;;;23.85;21.30;;;;;;;17.07;86.88;100791.97;7395259;19;20014;-68
2023/06/17 08:22:42;;;;;;;22.13;19.90;;;;;;;17.16;86.94;100792.44;7396528;19;20018;-67
2023/06/17 08:25:11;;;;;;;22.95;20.48;;;;;;;17.24;86.11;100792.94;7395754;19;20035;-67
2023/06/17 08:27:42;;;;;;;21.95;19.65;;;;;;;17.32;86.01;100789.91;7397191;19;20022;-67
2023/06/17 08:30:11;;;;;;;19.40;17.40;;;;;;;17.43;85.21;100798.19;7395434;19;20018;-68
2023/06/17 08:32:40;;;;;;;15.70;13.98;;;;;;;17.48;82.98;100796.19;7394803;19;20022;-68
2023/06/17 08:35:12;;;;;;;15.13;13.68;;;;;;;17.49;82.23;100794.38;7396518;19;20489;-69
2023/06/17 08:37:41;;;;;;;15.52;14.05;;;;;;;17.51;81.60;100789.88;7395218;19;20450;-68
2023/06/17 08:40:11;;;;;;;15.27;13.65;;;;;;;17.51;80.56;100790.72;7396850;19;20044;-68
2023/06/17 08:42:41;;;;;;;13.52;12.13;;;;;;;17.51;79.28;100790.72;7396208;19;20014;-68
2023/06/17 08:45:10;;;;;;;20.88;12.77;;;;;;;17.52;79.27;100799.53;7396495;19;20046;-67
2023/06/17 08:47:39;;;;;;;12.93;11.63;;;;;;;17.55;79.11;100791.41;7394542;19;20019;-67
2023/06/17 08:50:12;;;;;;;12.07;10.85;;;;;;;17.59;78.02;100793.84;7395733;19;20019;-68
2023/06/17 08:52:42;;;;;;;12.20;10.52;;;;;;;17.63;76.96;100788.38;7394340;19;20031;-67
2023/06/17 08:55:11;;;;;;;12.68;11.32;;;;;;;17.63;75.93;100791.03;7395849;19;20034;-68
2023/06/17 08:57:40;;;;;;;13.27;11.93;;;;;;;17.62;75.97;100799.94;7395524;19;20040;-67
2023/06/17 09:00:11;;;;;;;14.95;12.43;;;;;;;17.66;76.71;100805.00;7395859;19;20112;-68
2023/06/17 09:02:39;;;;;;;14.75;13.23;;;;;;;17.74;76.43;100800.19;7393522;19;20485;-67
2023/06/17 09:05:09;;;;;;;12.20;11.00;;;;;;;17.83;76.10;100798.84;7395302;19;20511;-67
2023/06/17 09:07:40;;;;;;;13.35;11.75;;;;;;;17.87;75.76;100797.75;7393660;19;20078;-66
2023/06/17 09:10:10;;;;;;;11.98;10.75;;;;;;;17.90;75.28;100802.03;7395665;19;20026;-70
2023/06/17 09:12:40;;;;;;;12.82;11.45;;;;;;;17.92;75.14;100803.66;7394914;19;20021;-67
2023/06/17 09:15:11;;;;;;;15.93;10.82;;;;;;;17.97;75.62;100800.81;7394694;19;20025;-67
2023/06/17 09:17:40;;;;;;;11.77;10.57;;;;;;;18.04;75.16;100809.31;7393303;19;20108;-68
2023/06/17 09:20:13;;;;;;;10.02;9.02;;;;;;;18.07;74.47;100802.06;7395029;19;20432;-69
2023/06/17 09:22:51;;;;;;;12.50;10.27;;;;;;;18.14;73.99;100809.69;7394643;19;20501;-68
2023/06/17 09:25:19;;;;;;;11.63;10.43;;;;;;;18.24;73.61;100803.81;7394189;19;20027;-68
2023/06/17 09:27:52;;;;;;;12.50;11.07;;;;;;;18.38;74.01;100794.25;7394913;19;20014;-67
2023/06/17 09:30:23;;;;;;;12.20;10.85;;;;;;;18.51;73.72;100797.97;7394919;19;20021;-68
2023/06/17 09:32:52;;;;;;;10.32;9.32;;;;;;;18.63;72.89;100809.72;7394995;19;20077;-66
2023/06/17 09:35:21;;;;;;;12.63;11.27;;;;;;;18.67;72.56;100807.75;7392158;19;20086;-68
2023/06/17 09:37:55;;;;;;;11.45;9.93;;;;;;;18.69;72.65;100805.84;7393165;19;20018;-69
2023/06/17 09:40:29;;;;;;;11.00;9.90;;;;;;;18.79;72.45;100809.75;7395326;19;20038;-68
2023/06/17 09:43:01;;;;;;;11.07;9.60;;;;;;;18.84;70.50;100813.00;7393235;19;20078;-69
2023/06/17 09:45:31;;;;;;;11.68;10.48;;;;;;;18.88;71.36;100801.25;7392873;19;20399;-69
2023/06/17 09:48:00;;;;;;;10.90;9.38;;;;;;;18.94;71.33;100801.88;7394879;19;20019;-68
2023/06/17 09:50:30;;;;;;;10.52;9.48;;;;;;;19.01;70.82;100804.09;7394247;19;20143;-68
2023/06/17 09:53:02;;;;;;;11.20;9.52;;;;;;;19.08;70.40;100799.28;7392477;19;20506;-67
2023/06/17 09:55:32;;;;;;;9.90;9.00;;;;;;;19.15;70.39;100799.81;7392862;19;20030;-67
2023/06/17 09:58:02;;;;;;;10.02;9.15;;;;;;;19.19;69.49;100796.88;7392549;19;20011;-66
2023/06/17 10:00:31;;;;;;;9.35;8.52;;;;;;;19.19;67.81;100806.69;7394636;19;20018;-67
2023/06/17 10:03:00;;;;;;;9.07;8.18;;;;;;;19.18;67.92;100796.97;7394118;19;20042;-67
2023/06/17 10:05:29;;;;;;;9.15;7.55;;;;;;;19.21;69.07;100796.81;7394166;19;20023;-68
2023/06/17 10:08:01;;;;;;;9.60;8.70;;;;;;;19.26;68.75;100800.06;7393963;19;20022;-68
2023/06/17 10:10:30;;;;;;;9.68;8.75;;;;;;;19.34;68.71;100788.97;7394699;19;20010;-69
2023/06/17 10:13:04;;;;;;;10.27;8.65;;;;;;;19.42;68.15;100785.88;7393293;19;20027;-68
2023/06/17 10:15:34;;;;;;;9.65;8.75;;;;;;;19.49;68.29;100781.91;7393930;19;20105;-68
2023/06/17 10:18:05;;;;;;;9.05;8.15;;;;;;;19.57;67.31;100784.97;7391710;19;20070;-66
2023/06/17 10:20:33;;;;;;;9.50;8.60;;;;;;;19.61;67.43;100781.16;7394447;19;20025;-68
2023/06/17 10:23:06;;;;;;;8.98;8.15;;;;;;;19.65;66.66;100774.75;7392716;19;20419;-68
2023/06/17 10:25:35;;;;;;;8.88;8.07;;;;;;;19.75;66.75;100776.84;7393996;19;20037;-66
2023/06/17 10:28:05;;;;;;;9.15;8.27;;;;;;;19.85;66.75;100770.03;7392677;19;20045;-67
2023/06/17 10:30:35;;;;;;;10.52;7.70;;;;;;;19.90;65.97;100770.63;7392775;19;20021;-66
2023/06/17 10:33:05;;;;;;;8.85;8.00;;;;;;;19.98;64.83;100764.81;7392840;19;20021;-67
2023/06/17 10:35:41;;;;;;;9.75;8.75;;;;;;;20.07;64.99;100763.41;7393148;19;20026;-68
2023/06/17 10:38:29;;;;;;;14.95;8.68;;;;;;;20.19;64.57;100762.66;7391153;19;20011;-68
2023/06/17 10:40:58;;;;;;;8.13;7.43;;;;;;;20.31;64.92;100767.22;7391395;19;20035;-68
2023/06/17 10:43:29;;;;;;;7.97;7.18;;;;;;;20.44;64.79;100761.97;7391728;19;20399;-68
2023/06/17 10:45:58;;;;;;;9.25;8.30;;;;;;;20.52;64.28;100758.81;7391337;19;20042;-68
2023/06/17 10:48:37;;;;;;;9.43;8.43;;;;;;;20.54;63.78;100770.25;7399610;19;20035;-68
2023/06/17 10:51:11;;;;;;;8.63;7.88;;;;;;;20.53;63.42;100762.38;7399357;19;20007;-68
2023/06/17 10:53:50;;;;;;;8.57;7.82;;;;;;;20.49;60.92;100761.69;7398239;19;20515;-67
2023/06/17 10:56:18;;;;;;;10.15;8.30;;;;;;;20.39;62.11;100776.56;7399981;19;20018;-68
2023/06/17 10:58:49;;;;;;;9.45;8.55;;;;;;;20.30;63.63;100768.16;7397202;19;20549;-68
2023/06/17 11:01:18;;;;;;;9.13;8.18;;;;;;;20.24;64.89;100768.56;7397058;19;20489;-68
2023/06/17 11:03:46;;;;;;;11.73;8.98;;;;;;;20.18;66.26;100766.25;7397124;19;20092;-68
2023/06/17 11:06:15;;;;;;;10.50;9.43;;;;;;;19.96;69.23;100780.06;7399954;19;20035;-69
2023/06/17 11:08:46;;;;;;;12.95;10.70;;;;;;;19.51;73.20;100761.38;7400337;19;20018;-69
2023/06/17 11:11:16;;;;;;;17.75;14.88;;;;;;;19.11;75.36;100763.69;7399855;19;20031;-69
2023/06/17 11:13:47;;;;;;;16.10;14.38;;;;;;;18.91;77.93;100756.88;7395892;19;20015;-69
2023/06/17 11:16:15;;;;;;;12.55;11.32;;;;;;;18.81;79.42;100756.50;7396245;19;20034;-69
2023/06/17 11:18:45;;;;;;;13.52;11.88;;;;;;;18.76;79.68;100755.91;7399026;19;20022;-69
2023/06/17 11:21:15;;;;;;;11.98;10.85;;;;;;;18.77;79.19;100752.31;7396115;19;20018;-69
2023/06/17 11:23:47;;;;;;;10.90;9.90;;;;;;;18.83;78.23;100746.63;7396180;19;20066;-69